createdAt,value
2017-09-14T00:02:18.243Z,9.43
2017-09-14T00:04:45.693Z,11.60
2017-09-14T00:07:13.922Z,11.83
2017-09-14T00:09:41.448Z,7.60
2017-09-14T00:12:08.948Z,8.20
2017-09-14T00:14:36.410Z,6.77
2017-09-14T00:17:03.856Z,7.07
2017-09-14T00:19:31.320Z,8.60
2017-09-14T00:21:58.769Z,7.03
2017-09-14T00:24:26.249Z,6.33
2017-09-14T00:26:53.738Z,6.57
2017-09-14T00:29:22.042Z,6.23
2017-09-14T00:31:49.596Z,5.50
2017-09-14T00:34:17.083Z,5.00
2017-09-14T00:36:44.562Z,5.40
2017-09-14T00:39:12.041Z,4.80
2017-09-14T00:41:40.311Z,4.80
2017-09-14T00:44:08.529Z,5.50
2017-09-14T00:46:35.985Z,5.50
2017-09-14T00:49:03.465Z,4.90
2017-09-14T00:51:30.945Z,4.73
2017-09-14T00:53:58.455Z,5.30
2017-09-14T00:56:25.937Z,4.60
2017-09-14T00:58:53.436Z,4.60
2017-09-14T01:01:20.922Z,4.90
2017-09-14T01:03:48.386Z,4.80
2017-09-14T01:06:15.881Z,4.57
2017-09-14T01:08:43.384Z,6.50
2017-09-14T01:11:11.697Z,6.77
2017-09-14T01:13:39.152Z,7.20
2017-09-14T01:16:06.634Z,7.17
2017-09-14T01:18:34.109Z,7.10
2017-09-14T01:21:01.570Z,6.23
2017-09-14T01:23:29.070Z,8.30
2017-09-14T01:25:56.556Z,7.87
2017-09-14T01:28:24.049Z,6.73
2017-09-14T01:30:51.497Z,7.60
2017-09-14T01:33:18.995Z,6.47
2017-09-14T01:35:46.448Z,9.87
2017-09-14T01:38:13.924Z,7.07
2017-09-14T01:40:41.398Z,7.77
2017-09-14T01:43:08.876Z,8.70
2017-09-14T01:45:37.126Z,8.40
2017-09-14T01:48:04.643Z,7.50
2017-09-14T01:50:32.100Z,6.10
2017-09-14T01:52:59.557Z,7.53
2017-09-14T01:55:27.061Z,7.33
2017-09-14T01:57:54.529Z,6.93
2017-09-14T02:00:22.016Z,6.47
2017-09-14T02:02:49.516Z,5.20
2017-09-14T02:05:16.974Z,5.07
2017-09-14T02:07:44.421Z,5.97
2017-09-14T02:10:13.589Z,5.60
2017-09-14T02:12:41.037Z,6.37
2017-09-14T02:15:09.287Z,5.07
2017-09-14T02:17:36.741Z,4.03
2017-09-14T02:20:04.485Z,5.50
2017-09-14T02:22:32.367Z,5.60
2017-09-14T02:25:00.158Z,5.37
2017-09-14T02:27:30.173Z,5.23
2017-09-14T02:29:57.904Z,6.23
2017-09-14T02:32:25.589Z,6.10
2017-09-14T02:34:53.033Z,7.50
2017-09-14T02:37:20.509Z,5.47
2017-09-14T02:39:47.997Z,5.87
2017-09-14T02:42:15.459Z,5.90
2017-09-14T02:44:42.905Z,5.50
2017-09-14T02:47:10.382Z,5.60
2017-09-14T02:49:37.845Z,5.70
2017-09-14T02:52:06.065Z,5.93
2017-09-14T02:54:33.538Z,5.40
2017-09-14T02:57:00.986Z,4.60
2017-09-14T02:59:28.479Z,4.93
2017-09-14T03:01:55.940Z,5.63
2017-09-14T03:04:23.437Z,6.03
2017-09-14T03:06:50.902Z,7.00
2017-09-14T03:09:18.353Z,5.30
2017-09-14T03:11:45.835Z,5.93
2017-09-14T03:14:13.364Z,6.20
2017-09-14T03:16:40.846Z,6.90
2017-09-14T03:19:08.365Z,6.10
2017-09-14T03:21:35.853Z,6.10
2017-09-14T03:24:03.306Z,4.63
2017-09-14T03:26:31.626Z,5.87
2017-09-14T03:28:59.118Z,5.80
2017-09-14T03:31:26.579Z,6.40
2017-09-14T03:33:54.034Z,6.47
2017-09-14T03:36:21.521Z,5.30
2017-09-14T03:38:49.045Z,6.07
2017-09-14T03:41:16.510Z,5.50
2017-09-14T03:43:43.962Z,5.27
2017-09-14T03:46:11.469Z,7.20
2017-09-14T03:48:38.920Z,5.80
2017-09-14T03:51:06.381Z,5.23
2017-09-14T03:53:34.635Z,4.40
2017-09-14T03:56:02.866Z,5.20
2017-09-14T03:58:30.321Z,5.00
2017-09-14T04:00:57.791Z,5.20
2017-09-14T04:03:25.262Z,4.60
2017-09-14T04:05:52.755Z,5.60
2017-09-14T04:08:20.209Z,4.17
2017-09-14T04:10:47.678Z,4.30
2017-09-14T04:13:15.335Z,4.03
2017-09-14T04:15:42.832Z,4.33
2017-09-14T04:18:10.309Z,4.33
2017-09-14T04:20:37.805Z,4.50
2017-09-14T04:23:05.266Z,5.07
2017-09-14T04:25:32.720Z,3.83
2017-09-14T04:28:00.194Z,4.23
2017-09-14T04:30:27.672Z,3.93
2017-09-14T04:32:55.121Z,3.57
2017-09-14T04:35:22.589Z,3.53
2017-09-14T04:37:50.066Z,4.27
2017-09-14T04:40:18.374Z,3.83
2017-09-14T04:42:46.629Z,4.40
2017-09-14T04:45:15.633Z,3.55
2017-09-14T04:47:43.085Z,5.60
2017-09-14T04:50:10.543Z,3.97
2017-09-14T04:52:38.026Z,4.67
2017-09-14T04:55:05.537Z,4.80
2017-09-14T04:57:32.981Z,4.87
2017-09-14T05:00:00.457Z,3.70
2017-09-14T05:02:27.916Z,4.63
2017-09-14T05:04:55.578Z,4.20
2017-09-14T05:07:23.081Z,4.83
2017-09-14T05:09:51.362Z,4.07
2017-09-14T05:12:19.581Z,4.43
2017-09-14T05:14:47.072Z,3.50
2017-09-14T05:17:14.556Z,3.67
2017-09-14T05:19:42.079Z,4.10
2017-09-14T05:22:09.553Z,3.27
2017-09-14T05:24:37.086Z,4.33
2017-09-14T05:27:04.570Z,3.23
2017-09-14T05:29:32.029Z,2.77
2017-09-14T05:31:59.489Z,3.20
2017-09-14T05:34:26.970Z,2.23
2017-09-14T05:36:54.422Z,1.83
2017-09-14T05:39:22.682Z,2.83
2017-09-14T05:41:50.150Z,3.83
2017-09-14T05:44:17.649Z,4.53
2017-09-14T05:46:45.107Z,5.03
2017-09-14T05:49:12.566Z,4.50
2017-09-14T05:51:40.175Z,5.87
2017-09-14T05:54:07.617Z,3.97
2017-09-14T05:56:35.096Z,3.63
2017-09-14T05:59:03.315Z,2.93
2017-09-14T06:01:30.773Z,2.93
2017-09-14T06:03:58.297Z,2.20
2017-09-14T06:06:25.740Z,2.23
2017-09-14T06:08:53.190Z,2.00
2017-09-14T06:11:20.679Z,3.03
2017-09-14T06:13:48.894Z,1.77
2017-09-14T06:16:16.357Z,2.70
2017-09-14T06:21:17.629Z,2.93
2017-09-14T06:23:45.101Z,2.40
2017-09-14T06:26:12.549Z,2.97
2017-09-14T06:28:40.041Z,3.53
2017-09-14T06:31:07.501Z,3.40
2017-09-14T06:33:34.962Z,3.20
2017-09-14T06:36:02.450Z,3.73
2017-09-14T06:38:29.971Z,3.97
2017-09-14T06:40:58.213Z,3.67
2017-09-14T06:43:26.470Z,4.63
2017-09-14T06:45:53.949Z,4.73
2017-09-14T06:48:21.434Z,5.37
2017-09-14T06:50:48.926Z,5.00
2017-09-14T06:53:16.377Z,4.73
2017-09-14T06:55:43.826Z,3.13
2017-09-14T06:58:12.053Z,5.17
2017-09-14T07:00:39.522Z,3.53
2017-09-14T07:03:06.998Z,2.80
2017-09-14T07:05:34.458Z,3.10
2017-09-14T07:08:01.950Z,2.33
2017-09-14T07:10:29.400Z,2.13
2017-09-14T07:12:56.885Z,1.50
2017-09-14T07:15:24.343Z,1.13
2017-09-14T07:17:51.818Z,1.10
2017-09-14T07:20:20.089Z,0.87
2017-09-14T07:22:47.537Z,1.30
2017-09-14T07:25:15.762Z,1.20
2017-09-14T07:27:43.245Z,1.23
2017-09-14T07:30:10.730Z,1.43
2017-09-14T07:32:38.225Z,1.27
2017-09-14T07:35:05.851Z,2.20
2017-09-14T07:37:33.311Z,1.10
2017-09-14T07:40:00.842Z,1.93
2017-09-14T07:42:28.301Z,1.30
2017-09-14T07:44:55.758Z,1.10
2017-09-14T07:47:23.250Z,1.20
2017-09-14T07:49:50.705Z,1.33
2017-09-14T07:52:18.158Z,1.33
2017-09-14T07:54:45.639Z,1.30
2017-09-14T07:57:13.117Z,1.10
2017-09-14T07:59:40.589Z,1.23
2017-09-14T08:02:08.046Z,0.97
2017-09-14T08:04:35.536Z,1.50
2017-09-14T08:07:02.981Z,1.13
2017-09-14T08:09:30.493Z,0.70
2017-09-14T08:11:57.949Z,0.87
2017-09-14T08:14:25.405Z,1.10
2017-09-14T08:16:52.883Z,1.10
2017-09-14T08:19:20.333Z,1.57
2017-09-14T08:21:47.829Z,1.13
2017-09-14T08:24:15.305Z,0.90
2017-09-14T08:26:42.762Z,0.63
2017-09-14T08:29:10.265Z,1.47
2017-09-14T08:31:37.725Z,1.30
2017-09-14T08:34:05.170Z,1.20
2017-09-14T08:36:32.641Z,1.37
2017-09-14T08:39:00.094Z,1.80
2017-09-14T08:41:27.588Z,1.33
2017-09-14T08:43:55.038Z,1.40
2017-09-14T08:46:22.514Z,1.10
2017-09-14T08:48:49.974Z,1.87
2017-09-14T08:51:17.465Z,2.13
2017-09-14T08:53:44.914Z,1.80
2017-09-14T08:56:12.382Z,1.77
2017-09-14T08:58:39.915Z,1.87
2017-09-14T09:01:07.356Z,1.63
2017-09-14T09:03:34.856Z,1.80
2017-09-14T09:06:02.306Z,1.70
2017-09-14T09:08:29.757Z,2.80
2017-09-14T09:10:57.229Z,2.90
2017-09-14T09:13:24.709Z,2.97
2017-09-14T09:15:52.163Z,2.63
2017-09-14T09:18:19.626Z,3.07
2017-09-14T09:20:47.106Z,2.13
2017-09-14T09:23:15.355Z,2.07
2017-09-14T09:25:42.975Z,2.80
2017-09-14T09:28:10.447Z,2.37
2017-09-14T09:30:37.975Z,2.10
2017-09-14T09:33:05.468Z,1.93
2017-09-14T09:35:32.923Z,2.40
2017-09-14T09:38:00.433Z,1.63
2017-09-14T09:40:28.658Z,4.20
2017-09-14T09:42:56.106Z,2.13
2017-09-14T09:45:23.581Z,1.90
2017-09-14T09:47:51.033Z,2.47
2017-09-14T09:50:18.538Z,1.27
2017-09-14T09:52:46.167Z,2.10
2017-09-14T09:55:13.671Z,1.77
2017-09-14T09:57:41.888Z,1.80
2017-09-14T10:00:09.349Z,1.83
2017-09-14T10:02:36.810Z,1.80
2017-09-14T10:05:04.281Z,2.53
2017-09-14T10:07:31.757Z,1.63
2017-09-14T10:09:59.210Z,1.40
2017-09-14T10:12:26.698Z,1.87
2017-09-14T10:14:54.930Z,1.90
2017-09-14T10:17:22.372Z,1.83
2017-09-14T10:19:49.897Z,2.33
2017-09-14T10:22:18.145Z,2.70
2017-09-14T10:24:45.589Z,3.10
2017-09-14T10:27:13.074Z,3.27
2017-09-14T10:29:40.545Z,3.10
2017-09-14T10:32:08.814Z,2.90
2017-09-14T10:34:37.050Z,3.00
2017-09-14T10:37:04.533Z,4.53
2017-09-14T10:39:32.062Z,4.43
2017-09-14T10:41:59.553Z,3.20
2017-09-14T10:44:27.009Z,3.20
2017-09-14T10:46:54.498Z,3.40
2017-09-14T10:49:22.034Z,4.73
2017-09-14T10:51:49.501Z,2.83
2017-09-14T10:54:17.724Z,3.20
2017-09-14T10:56:45.207Z,3.33
2017-09-14T10:59:12.659Z,2.87
2017-09-14T11:01:40.110Z,3.00
2017-09-14T11:04:08.362Z,2.33
2017-09-14T11:06:35.810Z,1.97
2017-09-14T11:09:03.262Z,2.93
2017-09-14T11:11:30.765Z,3.83
2017-09-14T11:13:58.213Z,3.13
2017-09-14T11:16:25.694Z,3.00
2017-09-14T11:18:53.142Z,2.47
2017-09-14T11:21:20.627Z,1.80
2017-09-14T11:23:48.069Z,2.60
2017-09-14T11:26:15.539Z,2.20
2017-09-14T11:28:43.018Z,1.97
2017-09-14T11:31:10.474Z,1.97
2017-09-14T11:33:37.922Z,1.83
2017-09-14T11:36:05.406Z,1.70
2017-09-14T11:38:32.850Z,1.50
2017-09-14T11:41:00.338Z,1.53
2017-09-14T11:43:27.806Z,1.20
2017-09-14T11:45:55.273Z,1.50
2017-09-14T11:48:23.601Z,1.03
2017-09-14T11:50:51.822Z,1.20
2017-09-14T11:53:19.308Z,0.97
2017-09-14T11:55:46.799Z,1.20
2017-09-14T11:58:15.038Z,1.33
2017-09-14T12:00:42.542Z,1.10
2017-09-14T12:03:10.030Z,1.07
2017-09-14T12:05:37.477Z,1.33
2017-09-14T12:08:04.957Z,1.60
2017-09-14T12:10:32.409Z,1.70
2017-09-14T12:12:59.859Z,1.40
2017-09-14T12:15:27.345Z,1.70
2017-09-14T12:17:54.795Z,0.70
2017-09-14T12:20:22.254Z,1.10
2017-09-14T12:22:49.895Z,1.00
2017-09-14T12:25:18.290Z,0.97
2017-09-14T12:27:45.732Z,1.70
2017-09-14T12:30:13.210Z,1.10
2017-09-14T12:32:40.676Z,1.53
2017-09-14T12:35:08.146Z,0.93
2017-09-14T12:37:35.674Z,1.20
2017-09-14T12:40:03.139Z,1.00
2017-09-14T12:42:30.622Z,1.13
2017-09-14T12:44:58.075Z,1.20
2017-09-14T12:47:25.538Z,1.00
2017-09-14T12:49:53.050Z,0.90
2017-09-14T12:52:20.538Z,0.93
2017-09-14T12:54:48.001Z,1.10
2017-09-14T12:57:15.470Z,0.90
2017-09-14T12:59:42.966Z,0.60
2017-09-14T13:02:10.421Z,0.90
2017-09-14T13:04:37.870Z,0.63
2017-09-14T13:07:06.106Z,1.77
2017-09-14T13:09:33.643Z,1.00
2017-09-14T13:12:01.121Z,0.67
2017-09-14T13:14:28.574Z,0.60
2017-09-14T13:16:56.049Z,0.70
2017-09-14T13:19:23.509Z,0.70
2017-09-14T13:21:50.991Z,0.80
2017-09-14T13:24:18.482Z,0.60
2017-09-14T13:26:45.941Z,0.70
2017-09-14T13:29:13.504Z,0.60
2017-09-14T13:31:40.996Z,1.00
2017-09-14T13:34:08.487Z,0.70
2017-09-14T13:36:36.738Z,0.50
2017-09-14T13:39:04.222Z,0.70
2017-09-14T13:41:32.438Z,0.70
2017-09-14T13:43:59.992Z,0.80
2017-09-14T13:46:27.454Z,0.70
2017-09-14T13:48:54.958Z,0.60
2017-09-14T13:51:22.408Z,0.60
2017-09-14T13:53:49.878Z,0.90
2017-09-14T13:56:17.398Z,0.60
2017-09-14T13:58:44.838Z,0.80
2017-09-14T14:01:12.301Z,0.97
2017-09-14T14:03:39.763Z,0.70
2017-09-14T14:06:07.213Z,0.60
2017-09-14T14:08:34.705Z,0.90
2017-09-14T14:11:02.173Z,0.80
2017-09-14T14:13:29.617Z,0.60
2017-09-14T14:15:57.090Z,0.67
2017-09-14T14:18:24.565Z,1.10
2017-09-14T14:20:52.785Z,0.80
2017-09-14T14:23:20.267Z,0.80
2017-09-14T14:25:47.720Z,0.90
2017-09-14T14:28:15.954Z,0.83
2017-09-14T14:30:43.438Z,1.07
2017-09-14T14:33:10.890Z,0.90
2017-09-14T14:35:38.365Z,1.00
2017-09-14T14:38:06.626Z,1.20
2017-09-14T14:40:34.082Z,0.97
2017-09-14T14:43:01.542Z,0.40
2017-09-14T14:45:29.014Z,0.80
2017-09-14T14:47:56.491Z,0.43
2017-09-14T14:50:23.938Z,0.80
2017-09-14T14:52:51.410Z,0.70
2017-09-14T14:55:19.434Z,0.90
2017-09-14T14:57:46.886Z,1.40
2017-09-14T15:00:14.462Z,1.00
2017-09-14T15:02:41.919Z,1.30
2017-09-14T15:05:09.374Z,0.90
2017-09-14T15:07:36.874Z,0.80
2017-09-14T15:10:04.329Z,0.83
2017-09-14T15:12:31.781Z,1.30
2017-09-14T15:14:59.246Z,1.87
2017-09-14T15:17:26.699Z,1.30
2017-09-14T15:19:54.167Z,1.70
2017-09-14T15:22:21.679Z,1.27
2017-09-14T15:24:49.201Z,1.00
2017-09-14T15:27:17.443Z,2.00
2017-09-14T15:29:44.984Z,1.83
2017-09-14T15:32:12.433Z,1.70
2017-09-14T15:34:39.918Z,1.50
2017-09-14T15:37:21.982Z,1.30
2017-09-14T15:39:55.064Z,1.43
2017-09-14T15:42:29.037Z,1.80
2017-09-14T15:45:02.167Z,1.80
2017-09-14T15:47:29.637Z,1.40
2017-09-14T15:50:02.837Z,2.10
2017-09-14T15:52:30.291Z,2.17
2017-09-14T15:54:57.766Z,2.30
2017-09-14T15:57:25.226Z,1.60
2017-09-14T15:59:52.706Z,1.80
2017-09-14T16:02:20.182Z,2.50
2017-09-14T16:04:47.652Z,2.07
2017-09-14T16:07:15.115Z,2.70
2017-09-14T16:09:42.667Z,2.80
2017-09-14T16:12:10.910Z,2.37
2017-09-14T16:14:38.401Z,2.13
2017-09-14T16:17:06.664Z,2.90
2017-09-14T16:19:34.151Z,2.07
2017-09-14T16:22:02.373Z,1.90
2017-09-14T16:24:29.826Z,3.00
2017-09-14T16:26:58.461Z,1.60
2017-09-14T16:29:28.960Z,1.90
2017-09-14T16:31:57.414Z,2.50
2017-09-14T16:34:24.982Z,2.13
2017-09-14T16:36:54.489Z,1.60
2017-09-14T16:39:23.051Z,1.73
2017-09-14T16:41:51.156Z,2.77
2017-09-14T16:44:19.211Z,4.17
2017-09-14T16:46:48.643Z,3.20
2017-09-14T16:49:18.014Z,4.23
2017-09-14T16:51:47.255Z,1.23
2017-09-14T16:54:15.282Z,2.40
2017-09-14T16:56:43.190Z,1.30
2017-09-14T16:59:12.069Z,2.43
2017-09-14T17:01:39.829Z,2.10
2017-09-14T17:04:08.770Z,2.70
2017-09-14T17:06:36.762Z,2.23
2017-09-14T17:09:05.277Z,2.70
2017-09-14T17:11:32.773Z,2.97
2017-09-14T17:14:01.448Z,2.07
2017-09-14T17:16:29.106Z,2.70
2017-09-14T17:18:56.790Z,2.00
2017-09-14T17:21:25.010Z,2.63
2017-09-14T17:23:52.697Z,1.80
2017-09-14T17:26:20.532Z,1.80
2017-09-14T17:28:48.799Z,1.60
2017-09-14T17:31:17.437Z,1.00
2017-09-14T17:33:44.970Z,1.80
2017-09-14T17:36:12.457Z,1.87
2017-09-14T17:38:39.964Z,1.70
2017-09-14T17:41:07.456Z,1.60
2017-09-14T17:43:34.957Z,1.70
2017-09-14T17:46:03.177Z,1.37
2017-09-14T17:48:30.629Z,1.60
2017-09-14T17:50:58.125Z,1.53
2017-09-14T17:53:25.572Z,1.73
2017-09-14T17:55:53.041Z,0.90
2017-09-14T17:58:20.554Z,1.00
2017-09-14T18:00:47.997Z,2.00
2017-09-14T18:03:15.483Z,2.03
2017-09-14T18:05:42.976Z,1.83
2017-09-14T18:08:10.450Z,1.70
2017-09-14T18:10:38.702Z,1.90
2017-09-14T18:13:07.014Z,2.10
2017-09-14T18:15:35.274Z,1.67
2017-09-14T18:18:02.786Z,1.93
2017-09-14T18:20:30.336Z,3.33
2017-09-14T18:22:57.914Z,2.20
2017-09-14T18:25:25.376Z,2.57
2017-09-14T18:27:52.817Z,2.70
2017-09-14T18:30:21.899Z,2.05
2017-09-14T18:32:49.381Z,1.63
2017-09-14T18:35:16.862Z,2.63
2017-09-14T18:37:44.330Z,1.93
2017-09-14T18:40:11.780Z,1.57
2017-09-14T18:42:39.270Z,2.10
2017-09-14T18:45:07.492Z,2.47
2017-09-14T18:47:34.941Z,2.77
2017-09-14T18:50:02.447Z,3.40
2017-09-14T18:52:29.902Z,2.20
2017-09-14T18:54:57.386Z,1.27
2017-09-14T18:57:24.866Z,1.90
2017-09-14T18:59:52.425Z,2.33
2017-09-14T19:02:19.995Z,2.37
2017-09-14T19:04:47.529Z,1.60
2017-09-14T19:07:15.000Z,2.13
2017-09-14T19:09:42.450Z,2.67
2017-09-14T19:12:09.937Z,2.80
2017-09-14T19:14:37.420Z,2.60
2017-09-14T19:17:04.878Z,1.80
2017-09-14T19:19:32.402Z,3.00
2017-09-14T19:21:59.856Z,2.00
2017-09-14T19:24:27.302Z,2.57
2017-09-14T19:26:54.973Z,3.80
2017-09-14T19:29:22.934Z,2.97
2017-09-14T19:31:50.408Z,2.63
2017-09-14T19:34:17.958Z,2.70
2017-09-14T19:36:45.546Z,3.60
2017-09-14T19:39:13.038Z,3.20
2017-09-14T19:41:40.698Z,2.60
2017-09-14T19:44:08.210Z,1.90
2017-09-14T19:46:35.679Z,2.23
2017-09-14T19:49:03.134Z,2.60
2017-09-14T19:51:30.597Z,2.27
2017-09-14T19:53:58.309Z,2.13
2017-09-14T19:56:26.624Z,3.37
2017-09-14T19:58:54.146Z,3.23
2017-09-14T20:01:22.397Z,2.40
2017-09-14T20:03:49.865Z,2.20
2017-09-14T20:06:17.373Z,3.53
2017-09-14T20:08:45.699Z,3.30
2017-09-14T20:11:13.242Z,2.50
2017-09-14T20:13:40.713Z,3.23
2017-09-14T20:16:08.166Z,3.17
2017-09-14T20:18:35.637Z,3.77
2017-09-14T20:21:03.125Z,4.20
2017-09-14T20:23:30.588Z,1.90
2017-09-14T20:25:58.058Z,3.50
2017-09-14T20:28:25.613Z,3.93
2017-09-14T20:30:53.111Z,3.20
2017-09-14T20:33:20.575Z,2.70
2017-09-14T20:35:48.065Z,3.30
2017-09-14T20:38:16.289Z,4.27
2017-09-14T20:40:43.766Z,3.83
2017-09-14T20:43:11.597Z,4.97
2017-09-14T20:45:39.051Z,4.00
2017-09-14T20:48:06.510Z,2.67
2017-09-14T20:50:34.168Z,3.70
2017-09-14T20:53:01.647Z,4.10
2017-09-14T20:55:29.106Z,4.73
2017-09-14T20:57:56.570Z,3.33
2017-09-14T21:00:24.049Z,3.73
2017-09-14T21:02:51.539Z,5.20
2017-09-14T21:05:19.772Z,2.50
2017-09-14T21:07:47.252Z,3.80
2017-09-14T21:10:14.739Z,4.90
2017-09-14T21:12:42.959Z,6.40
2017-09-14T21:15:10.442Z,5.90
2017-09-14T21:17:37.914Z,6.30
2017-09-14T21:20:05.432Z,6.90
2017-09-14T21:22:32.982Z,2.83
2017-09-14T21:25:00.433Z,3.50
2017-09-14T21:27:27.908Z,3.20
2017-09-14T21:29:55.407Z,2.73
2017-09-14T21:32:22.854Z,2.50
2017-09-14T21:34:50.318Z,2.87
2017-09-14T21:37:17.809Z,2.00
2017-09-14T21:39:46.021Z,2.30
2017-09-14T21:42:13.485Z,2.37
2017-09-14T21:44:41.757Z,2.70
2017-09-14T21:47:09.210Z,2.43
2017-09-14T21:49:36.722Z,1.63
2017-09-14T21:52:05.647Z,2.10
2017-09-14T21:54:33.135Z,2.00
2017-09-14T21:57:00.619Z,3.30
2017-09-14T21:59:28.099Z,3.00
2017-09-14T22:01:55.557Z,1.93
2017-09-14T22:04:23.002Z,2.33
2017-09-14T22:06:50.494Z,3.23
2017-09-14T22:09:17.955Z,2.67
2017-09-14T22:11:45.441Z,2.47
2017-09-14T22:14:12.917Z,2.30
2017-09-14T22:16:40.399Z,3.47
2017-09-14T22:19:08.673Z,2.93
2017-09-14T22:21:36.944Z,3.00
2017-09-14T22:24:04.422Z,3.20
2017-09-14T22:26:32.653Z,3.43
2017-09-14T22:29:00.162Z,3.23
2017-09-14T22:31:27.673Z,3.77
2017-09-14T22:33:55.144Z,3.50
2017-09-14T22:36:22.602Z,2.97
2017-09-14T22:38:50.085Z,4.17
2017-09-14T22:41:17.556Z,4.67
2017-09-14T22:43:45.782Z,3.83
2017-09-14T22:46:13.277Z,4.60
2017-09-14T22:48:40.843Z,4.43
2017-09-14T22:51:09.058Z,4.40
2017-09-14T22:53:36.558Z,3.93
2017-09-14T22:56:04.029Z,4.77
2017-09-14T22:58:32.265Z,2.63
2017-09-14T23:00:59.725Z,4.57
2017-09-14T23:03:27.201Z,5.40
2017-09-14T23:05:54.689Z,5.23
2017-09-14T23:08:22.909Z,4.53
2017-09-14T23:10:50.384Z,6.20
2017-09-14T23:13:17.845Z,6.60
2017-09-14T23:15:45.305Z,7.30
2017-09-14T23:18:12.789Z,5.80
2017-09-14T23:20:41.014Z,7.07
2017-09-14T23:23:08.469Z,7.20
2017-09-14T23:25:35.949Z,9.07
2017-09-14T23:28:03.433Z,7.93
2017-09-14T23:30:30.886Z,7.20
2017-09-14T23:32:58.361Z,7.67
2017-09-14T23:35:26.573Z,7.57
2017-09-14T23:37:54.046Z,8.27
2017-09-14T23:40:21.566Z,8.80
2017-09-14T23:42:49.046Z,9.33
2017-09-14T23:45:16.558Z,10.40
2017-09-14T23:47:44.042Z,10.27
2017-09-14T23:50:11.489Z,9.93
2017-09-14T23:52:39.721Z,11.20
2017-09-14T23:55:07.202Z,10.57
2017-09-14T23:57:34.653Z,12.00
